NCAR-RAP Real-Time Weather Data

Output produced by METARs form (06 May 2021  15:04 UTC)
found at http://weather.rap.ucar.edu/surface/
 
KSPB 061453Z AUTO 00000KT 10SM CLR 13/08 A2992 RMK AO2 SLP132 T01280083 53016
KSPB 061353Z AUTO 00000KT 10SM FEW120 11/08 A2990 RMK AO2 SLP123 T01110078
KSPB 061253Z AUTO 26003KT 10SM CLR 10/07 A2988 RMK AO2 SLP119 T01000072
KSPB 061153Z AUTO 00000KT 10SM SCT120 11/07 A2987 RMK AO2 SLP116 T01060072 10150 20106 53012
KSPB 061053Z AUTO 00000KT 10SM SCT120 12/08 A2986 RMK AO2 SLP112 T01170078
KSPB 060953Z AUTO 00000KT 10SM SCT120 12/08 A2984 RMK AO2 SLP106 T01220078
KSPB 060853Z AUTO 00000KT 10SM CLR 12/08 A2984 RMK AO2 SLP104 T01220078 51006
KSPB 060753Z AUTO 26003KT 10SM CLR 13/08 A2984 RMK AO2 SLP103 T01280078 402830056
KSPB 060653Z AUTO 00000KT 10SM CLR 13/08 A2983 RMK AO2 SLP100 T01330083
KSPB 060553Z AUTO 00000KT 10SM CLR 14/09 A2982 RMK AO2 SLP098 T01440089 10283 20144 51012
KSPB 060453Z AUTO 00000KT 10SM CLR 16/09 A2981 RMK AO2 SLP095 T01560094
KSPB 060353Z AUTO 27003KT 10SM CLR 18/11 A2980 RMK AO2 SLP091 T01830106
KSPB 060253Z AUTO 26003KT 10SM CLR 21/10 A2979 RMK AO2 SLP086 T02110100 56014